Terminal Aerodrome Forecast
Issued by NWS Sterling, VA

Home | Current Version | Previous Version | Text Only | Print | Product List | Glossary On
Versions: 1 2 3 4 5 6 7 8 9 10 11 12 13 14 15 16 17 18 19 20 21 22 23 24 25
000
FTUS41 KLWX 260855 AAA
TAFBWI
TAF AMD
KBWI 260855Z 2609/2712 VRB03KT P6SM SCT120
     FM261400 31005KT P6SM SCT090
     FM262000 30006KT P6SM BKN050
     FM270000 23004KT P6SM BKN070=

USA.gov is the U.S. government's official web portal to all federal, state and local government web resources and services.